sensor_id;sensor_type;location;lat;lon;timestamp;pressure;altitude;pressure_sealevel;temperature;humidity
40850;BME280;26571;41.610;25.380;2023-05-10T00:02:22;98765.53;;;11.41;76.44
40850;BME280;26571;41.610;25.380;2023-05-10T00:04:48;98750.53;;;11.25;76.59
40850;BME280;26571;41.610;25.380;2023-05-10T00:07:13;98765.34;;;11.43;76.51
40850;BME280;26571;41.610;25.380;2023-05-10T00:09:39;98734.03;;;11.23;76.64
40850;BME280;26571;41.610;25.380;2023-05-10T00:12:05;98762.38;;;11.37;77.16
40850;BME280;26571;41.610;25.380;2023-05-10T00:14:30;98756.47;;;11.44;77.59
40850;BME280;26571;41.610;25.380;2023-05-10T00:16:56;98759.75;;;11.37;77.76
40850;BME280;26571;41.610;25.380;2023-05-10T00:19:21;98757.78;;;11.48;76.76
40850;BME280;26571;41.610;25.380;2023-05-10T00:21:46;98747.41;;;11.46;76.73
40850;BME280;26571;41.610;25.380;2023-05-10T00:24:12;98756.13;;;11.47;77.48
40850;BME280;26571;41.610;25.380;2023-05-10T00:26:37;98748.53;;;11.44;78.41
40850;BME280;26571;41.610;25.380;2023-05-10T00:29:03;98749.72;;;11.49;78.24
40850;BME280;26571;41.610;25.380;2023-05-10T00:31:28;98745.78;;;11.45;78.37
40850;BME280;26571;41.610;25.380;2023-05-10T00:33:54;98738.19;;;11.50;78.45
40850;BME280;26571;41.610;25.380;2023-05-10T00:36:19;98728.97;;;11.54;78.52
40850;BME280;26571;41.610;25.380;2023-05-10T00:38:45;98710.69;;;11.45;78.98
40850;BME280;26571;41.610;25.380;2023-05-10T00:41:11;98736.53;;;11.57;79.18
40850;BME280;26571;41.610;25.380;2023-05-10T00:43:36;98737.69;;;11.63;78.46
40850;BME280;26571;41.610;25.380;2023-05-10T00:46:02;98741.66;;;11.59;78.85
40850;BME280;26571;41.610;25.380;2023-05-10T00:48:29;98734.72;;;11.58;79.33
40850;BME280;26571;41.610;25.380;2023-05-10T00:50:54;98732.75;;;11.60;79.41
40850;BME280;26571;41.610;25.380;2023-05-10T00:53:21;98736.03;;;11.62;79.33
40850;BME280;26571;41.610;25.380;2023-05-10T00:55:46;98732.06;;;11.58;79.94
40850;BME280;26571;41.610;25.380;2023-05-10T00:58:12;98684.97;;;11.22;80.62
40850;BME280;26571;41.610;25.380;2023-05-10T01:00:38;98726.47;;;11.53;80.91
40850;BME280;26571;41.610;25.380;2023-05-10T01:03:06;98724.69;;;11.45;80.98
40850;BME280;26571;41.610;25.380;2023-05-10T01:05:32;98728.63;;;11.41;81.62
40850;BME280;26571;41.610;25.380;2023-05-10T01:07:57;98733.06;;;11.41;81.80
40850;BME280;26571;41.610;25.380;2023-05-10T01:10:22;98720.84;;;11.23;82.40
40850;BME280;26571;41.610;25.380;2023-05-10T01:12:48;98730.75;;;11.37;82.27
40850;BME280;26571;41.610;25.380;2023-05-10T01:15:14;98728.13;;;11.29;82.55
40850;BME280;26571;41.610;25.380;2023-05-10T01:17:44;98730.28;;;11.34;82.18
40850;BME280;26571;41.610;25.380;2023-05-10T01:20:11;98735.72;;;11.41;81.87
40850;BME280;26571;41.610;25.380;2023-05-10T01:29:06;98727.13;;;11.22;82.40
40850;BME280;26571;41.610;25.380;2023-05-10T01:34:02;98724.00;;;11.10;83.17
40850;BME280;26571;41.610;25.380;2023-05-10T01:36:37;98701.56;;;10.90;83.05
40850;BME280;26571;41.610;25.380;2023-05-10T01:41:43;98724.31;;;11.16;82.93
40850;BME280;26571;41.610;25.380;2023-05-10T01:46:46;98725.47;;;11.13;83.38
40850;BME280;26571;41.610;25.380;2023-05-10T01:49:23;98723.81;;;11.12;83.42
40850;BME280;26571;41.610;25.380;2023-05-10T01:51:52;98724.31;;;11.07;83.53
40850;BME280;26571;41.610;25.380;2023-05-10T01:54:20;98717.88;;;11.02;83.45
40850;BME280;26571;41.610;25.380;2023-05-10T01:56:50;98722.31;;;11.01;83.27
40850;BME280;26571;41.610;25.380;2023-05-10T01:59:19;98720.69;;;11.00;83.89
40850;BME280;26571;41.610;25.380;2023-05-10T02:01:45;98711.75;;;10.85;84.42
40850;BME280;26571;41.610;25.380;2023-05-10T02:04:15;98717.88;;;11.02;84.50
40850;BME280;26571;41.610;25.380;2023-05-10T02:06:42;98721.50;;;11.01;84.65
40850;BME280;26571;41.610;25.380;2023-05-10T02:09:10;98723.75;;;10.87;84.67
40850;BME280;26571;41.610;25.380;2023-05-10T02:11:38;98720.47;;;10.94;84.30
40850;BME280;26571;41.610;25.380;2023-05-10T02:14:06;98726.09;;;10.91;84.57
40850;BME280;26571;41.610;25.380;2023-05-10T02:16:34;98722.78;;;10.88;84.09
40850;BME280;26571;41.610;25.380;2023-05-10T02:19:01;98720.78;;;10.82;84.78
40850;BME280;26571;41.610;25.380;2023-05-10T02:21:28;98722.13;;;10.86;85.10
40850;BME280;26571;41.610;25.380;2023-05-10T02:23:54;98717.50;;;10.88;84.89
40850;BME280;26571;41.610;25.380;2023-05-10T02:26:21;98723.13;;;10.85;84.89
40850;BME280;26571;41.610;25.380;2023-05-10T02:28:49;98700.03;;;10.71;84.58
40850;BME280;26571;41.610;25.380;2023-05-10T02:31:15;98705.31;;;10.71;85.22
40850;BME280;26571;41.610;25.380;2023-05-10T02:33:40;98726.41;;;10.79;85.30
40850;BME280;26571;41.610;25.380;2023-05-10T02:36:08;98721.28;;;10.78;85.34
40850;BME280;26571;41.610;25.380;2023-05-10T02:38:36;98734.56;;;10.60;85.17
40850;BME280;26571;41.610;25.380;2023-05-10T02:41:02;98718.50;;;10.79;85.46
40850;BME280;26571;41.610;25.380;2023-05-10T02:43:32;98731.81;;;10.78;85.37
40850;BME280;26571;41.610;25.380;2023-05-10T02:45:58;98714.88;;;10.80;85.90
40850;BME280;26571;41.610;25.380;2023-05-10T02:48:24;98723.44;;;10.82;85.50
40850;BME280;26571;41.610;25.380;2023-05-10T02:50:51;98719.47;;;10.78;85.89
40850;BME280;26571;41.610;25.380;2023-05-10T02:53:30;98709.56;;;10.72;85.34
40850;BME280;26571;41.610;25.380;2023-05-10T02:55:59;98732.97;;;10.83;85.42
40850;BME280;26571;41.610;25.380;2023-05-10T02:58:25;98723.59;;;10.81;85.53
40850;BME280;26571;41.610;25.380;2023-05-10T03:00:51;98708.28;;;10.76;85.42
40850;BME280;26571;41.610;25.380;2023-05-10T03:03:17;98724.09;;;10.84;85.65
40850;BME280;26571;41.610;25.380;2023-05-10T03:05:42;98735.13;;;10.88;85.62
40850;BME280;26571;41.610;25.380;2023-05-10T03:08:08;98728.53;;;10.84;85.58
40850;BME280;26571;41.610;25.380;2023-05-10T03:10:40;98734.16;;;10.89;85.80
40850;BME280;26571;41.610;25.380;2023-05-10T03:13:29;98733.47;;;10.87;86.03
40850;BME280;26571;41.610;25.380;2023-05-10T03:16:33;98734.81;;;10.91;85.52
40850;BME280;26571;41.610;25.380;2023-05-10T03:21:37;98732.97;;;10.83;86.21
40850;BME280;26571;41.610;25.380;2023-05-10T03:26:30;98742.41;;;10.94;85.34
40850;BME280;26571;41.610;25.380;2023-05-10T03:28:56;98735.63;;;10.92;85.68
40850;BME280;26571;41.610;25.380;2023-05-10T03:31:24;98736.47;;;10.92;85.42
40850;BME280;26571;41.610;25.380;2023-05-10T03:33:51;98738.75;;;10.87;85.51
40850;BME280;26571;41.610;25.380;2023-05-10T03:36:17;98735.16;;;10.96;84.91
40850;BME280;26571;41.610;25.380;2023-05-10T03:38:42;98717.16;;;10.75;84.88
40850;BME280;26571;41.610;25.380;2023-05-10T03:41:07;98734.34;;;10.96;84.44
40850;BME280;26571;41.610;25.380;2023-05-10T03:43:33;98741.56;;;10.94;84.58
40850;BME280;26571;41.610;25.380;2023-05-10T03:46:01;98734.84;;;10.99;84.66
40850;BME280;26571;41.610;25.380;2023-05-10T03:48:27;98734.34;;;10.96;84.58
40850;BME280;26571;41.610;25.380;2023-05-10T03:50:52;98734.84;;;10.99;84.29
40850;BME280;26571;41.610;25.380;2023-05-10T03:53:17;98748.00;;;10.99;83.47
40850;BME280;26571;41.610;25.380;2023-05-10T03:55:43;98748.50;;;10.95;83.80
40850;BME280;26571;41.610;25.380;2023-05-10T03:58:10;98758.69;;;10.98;84.13
40850;BME280;26571;41.610;25.380;2023-05-10T04:00:36;98760.97;;;10.93;84.42
40850;BME280;26571;41.610;25.380;2023-05-10T04:03:02;98748.13;;;10.81;84.17
40850;BME280;26571;41.610;25.380;2023-05-10T04:05:27;98761.16;;;10.91;84.39
40850;BME280;26571;41.610;25.380;2023-05-10T04:07:53;98761.97;;;10.92;84.72
40850;BME280;26571;41.610;25.380;2023-05-10T04:10:18;98760.97;;;10.93;84.64
40850;BME280;26571;41.610;25.380;2023-05-10T04:12:44;98761.50;;;10.96;84.45
40850;BME280;26571;41.610;25.380;2023-05-10T04:15:09;98775.53;;;11.05;84.52
40850;BME280;26571;41.610;25.380;2023-05-10T04:17:35;98771.91;;;11.06;84.17
40850;BME280;26571;41.610;25.380;2023-05-10T04:20:00;98759.38;;;11.00;84.68
40850;BME280;26571;41.610;25.380;2023-05-10T04:22:25;98763.31;;;11.04;84.33
40850;BME280;26571;41.610;25.380;2023-05-10T04:24:51;98763.00;;;11.07;84.08
40850;BME280;26571;41.610;25.380;2023-05-10T04:27:16;98757.72;;;11.07;83.84
40850;BME280;26571;41.610;25.380;2023-05-10T04:29:42;98646.66;;;10.45;84.09
40850;BME280;26571;41.610;25.380;2023-05-10T04:32:08;98764.69;;;11.32;83.82
40850;BME280;26571;41.610;25.380;2023-05-10T04:34:36;98764.03;;;11.47;83.21
40850;BME280;26571;41.610;25.380;2023-05-10T04:37:01;98760.44;;;11.64;81.84
40850;BME280;26571;41.610;25.380;2023-05-10T04:39:26;98764.88;;;11.80;81.19
40850;BME280;26571;41.610;25.380;2023-05-10T04:41:52;98774.28;;;12.07;79.37
40850;BME280;26571;41.610;25.380;2023-05-10T04:44:18;98763.03;;;12.21;78.84
40850;BME280;26571;41.610;25.380;2023-05-10T04:46:43;98771.84;;;12.53;77.60
40850;BME280;26571;41.610;25.380;2023-05-10T04:49:08;98779.44;;;12.56;76.53
40850;BME280;26571;41.610;25.380;2023-05-10T04:51:34;98776.16;;;12.54;77.00
40850;BME280;26571;41.610;25.380;2023-05-10T04:53:59;98785.09;;;12.45;76.47
40850;BME280;26571;41.610;25.380;2023-05-10T04:56:25;98780.81;;;12.44;77.06
40850;BME280;26571;41.610;25.380;2023-05-10T04:58:51;98774.03;;;12.41;76.49
40850;BME280;26571;41.610;25.380;2023-05-10T05:01:16;98778.69;;;12.23;75.77
40850;BME280;26571;41.610;25.380;2023-05-10T05:03:42;98779.06;;;12.11;76.62
40850;BME280;26571;41.610;25.380;2023-05-10T05:06:07;98780.72;;;12.04;76.66
40850;BME280;26571;41.610;25.380;2023-05-10T05:08:33;98784.19;;;12.05;77.02
40850;BME280;26571;41.610;25.380;2023-05-10T05:10:58;98781.69;;;12.03;76.99
40850;BME280;26571;41.610;25.380;2023-05-10T05:13:24;98786.19;;;11.95;77.20
40850;BME280;26571;41.610;25.380;2023-05-10T05:15:50;98793.59;;;11.91;77.78
40850;BME280;26571;41.610;25.380;2023-05-10T05:18:15;98789.13;;;11.92;78.02
40850;BME280;26571;41.610;25.380;2023-05-10T05:20:40;98791.78;;;12.00;77.63
40850;BME280;26571;41.610;25.380;2023-05-10T05:23:06;98784.69;;;11.92;78.01
40850;BME280;26571;41.610;25.380;2023-05-10T05:25:31;98786.19;;;11.95;77.35
40850;BME280;26571;41.610;25.380;2023-05-10T05:27:57;98783.84;;;11.92;77.16
40850;BME280;26571;41.610;25.380;2023-05-10T05:30:22;98786.81;;;11.97;77.66
40850;BME280;26571;41.610;25.380;2023-05-10T05:32:47;98791.44;;;11.95;77.49
40850;BME280;26571;41.610;25.380;2023-05-10T05:35:13;98787.16;;;11.94;76.59
40850;BME280;26571;41.610;25.380;2023-05-10T05:37:38;98783.72;;;11.85;77.94
40850;BME280;26571;41.610;25.380;2023-05-10T05:40:05;98791.13;;;11.89;77.36
40850;BME280;26571;41.610;25.380;2023-05-10T05:42:31;98749.22;;;11.62;77.72
40850;BME280;26571;41.610;25.380;2023-05-10T05:44:56;98760.59;;;11.54;77.57
40850;BME280;26571;41.610;25.380;2023-05-10T05:47:21;98798.34;;;11.79;76.77
40850;BME280;26571;41.610;25.380;2023-05-10T05:49:47;98794.41;;;11.75;77.52
40850;BME280;26571;41.610;25.380;2023-05-10T05:52:12;98784.84;;;11.82;76.55
40850;BME280;26571;41.610;25.380;2023-05-10T05:54:38;98764.22;;;11.78;77.34
40850;BME280;26571;41.610;25.380;2023-05-10T05:57:04;98783.03;;;11.99;77.48
40850;BME280;26571;41.610;25.380;2023-05-10T05:59:29;98788.16;;;12.09;76.40
40850;BME280;26571;41.610;25.380;2023-05-10T06:01:55;98792.41;;;12.18;76.88
40850;BME280;26571;41.610;25.380;2023-05-10T06:04:20;98797.84;;;12.25;76.78
40850;BME280;26571;41.610;25.380;2023-05-10T06:06:45;98797.00;;;12.32;75.24
40850;BME280;26571;41.610;25.380;2023-05-10T06:09:11;98798.13;;;12.38;75.20
40850;BME280;26571;41.610;25.380;2023-05-10T06:11:37;98798.31;;;12.36;75.72
40850;BME280;26571;41.610;25.380;2023-05-10T06:14:03;98795.47;;;12.54;75.21
40850;BME280;26571;41.610;25.380;2023-05-10T06:16:30;98803.84;;;12.66;74.76
40850;BME280;26571;41.610;25.380;2023-05-10T06:18:55;98802.50;;;12.78;73.13
40850;BME280;26571;41.610;25.380;2023-05-10T06:21:21;98806.38;;;12.90;73.25
40850;BME280;26571;41.610;25.380;2023-05-10T06:23:47;98806.38;;;12.90;72.74
40850;BME280;26571;41.610;25.380;2023-05-10T06:26:12;98807.91;;;12.85;70.97
40850;BME280;26571;41.610;25.380;2023-05-10T06:28:39;98766.72;;;12.59;71.70
40850;BME280;26571;41.610;25.380;2023-05-10T06:31:04;98771.53;;;12.56;73.00
40850;BME280;26571;41.610;25.380;2023-05-10T06:33:30;98805.47;;;12.67;73.46
40850;BME280;26571;41.610;25.380;2023-05-10T06:35:56;98815.69;;;12.78;72.00
40850;BME280;26571;41.610;25.380;2023-05-10T06:38:22;98817.38;;;12.63;72.03
40850;BME280;26571;41.610;25.380;2023-05-10T06:40:47;98816.09;;;12.51;72.40
40850;BME280;26571;41.610;25.380;2023-05-10T06:43:13;98813.63;;;12.49;71.64
40850;BME280;26571;41.610;25.380;2023-05-10T06:45:38;98811.50;;;12.36;70.84
40850;BME280;26571;41.610;25.380;2023-05-10T06:48:04;98814.19;;;12.20;72.85
40850;BME280;26571;41.610;25.380;2023-05-10T06:50:29;98809.91;;;12.19;73.17
40850;BME280;26571;41.610;25.380;2023-05-10T06:52:55;98814.19;;;12.20;73.45
40850;BME280;26571;41.610;25.380;2023-05-10T06:55:21;98814.50;;;12.17;76.02
40850;BME280;26571;41.610;25.380;2023-05-10T06:57:46;98779.06;;;12.03;77.23
40850;BME280;26571;41.610;25.380;2023-05-10T07:00:13;98807.91;;;12.13;78.41
40850;BME280;26571;41.610;25.380;2023-05-10T07:02:39;98816.16;;;12.18;77.90
40850;BME280;26571;41.610;25.380;2023-05-10T07:05:04;98813.19;;;12.29;79.48
40850;BME280;26571;41.610;25.380;2023-05-10T07:07:30;98822.06;;;12.45;77.79
40850;BME280;26571;41.610;25.380;2023-05-10T07:09:56;98807.34;;;12.58;77.61
40850;BME280;26571;41.610;25.380;2023-05-10T07:12:23;98811.59;;;12.67;76.27
40850;BME280;26571;41.610;25.380;2023-05-10T07:14:48;98808.09;;;12.75;73.62
40850;BME280;26571;41.610;25.380;2023-05-10T07:17:13;98804.84;;;12.65;73.17
40850;BME280;26571;41.610;25.380;2023-05-10T07:19:39;98812.44;;;12.60;73.41
40850;BME280;26571;41.610;25.380;2023-05-10T07:22:04;98815.91;;;12.52;72.05
40850;BME280;26571;41.610;25.380;2023-05-10T07:24:30;98820.56;;;12.50;72.24
40850;BME280;26571;41.610;25.380;2023-05-10T07:26:57;98821.06;;;12.54;74.08
40850;BME280;26571;41.610;25.380;2023-05-10T07:29:22;98826.59;;;12.67;72.67
40850;BME280;26571;41.610;25.380;2023-05-10T07:31:48;98823.94;;;12.83;74.04
40850;BME280;26571;41.610;25.380;2023-05-10T07:34:13;98823.41;;;12.88;71.42
40850;BME280;26571;41.610;25.380;2023-05-10T07:36:38;98818.66;;;12.83;70.90
40850;BME280;26571;41.610;25.380;2023-05-10T07:39:04;98781.47;;;12.85;71.02
40850;BME280;26571;41.610;25.380;2023-05-10T07:41:30;98806.78;;;13.10;71.50
40850;BME280;26571;41.610;25.380;2023-05-10T07:43:55;98830.59;;;13.41;70.79
40850;BME280;26571;41.610;25.380;2023-05-10T07:46:20;98833.16;;;13.58;68.41
40850;BME280;26571;41.610;25.380;2023-05-10T07:48:46;98715.84;;;12.97;69.23
40850;BME280;26571;41.610;25.380;2023-05-10T07:51:11;98826.75;;;13.75;65.92
40850;BME280;26571;41.610;25.380;2023-05-10T07:53:38;98817.69;;;13.92;67.42
40850;BME280;26571;41.610;25.380;2023-05-10T07:56:27;98821.03;;;14.24;64.81
40850;BME280;26571;41.610;25.380;2023-05-10T07:58:55;98804.69;;;14.20;63.58
40850;BME280;26571;41.610;25.380;2023-05-10T08:01:22;98834.34;;;14.54;65.98
40850;BME280;26571;41.610;25.380;2023-05-10T08:03:47;98842.78;;;14.72;61.05
40850;BME280;26571;41.610;25.380;2023-05-10T08:06:14;98838.38;;;14.79;62.37
40850;BME280;26571;41.610;25.380;2023-05-10T08:08:40;98837.63;;;14.85;63.54
40850;BME280;26571;41.610;25.380;2023-05-10T08:11:06;98837.72;;;15.07;62.75
40850;BME280;26571;41.610;25.380;2023-05-10T08:13:31;98841.53;;;15.19;63.13
40850;BME280;26571;41.610;25.380;2023-05-10T08:15:57;98843.19;;;15.20;61.20
40850;BME280;26571;41.610;25.380;2023-05-10T08:18:22;98833.41;;;15.06;60.10
40850;BME280;26571;41.610;25.380;2023-05-10T08:20:48;98841.63;;;15.11;61.32
40850;BME280;26571;41.610;25.380;2023-05-10T08:23:13;98843.38;;;15.04;59.94
40850;BME280;26571;41.610;25.380;2023-05-10T08:25:39;98840.81;;;14.95;57.95
40850;BME280;26571;41.610;25.380;2023-05-10T08:28:04;98852.91;;;14.83;59.08
40850;BME280;26571;41.610;25.380;2023-05-10T08:30:29;98841.38;;;14.76;60.48
40850;BME280;26571;41.610;25.380;2023-05-10T08:32:55;98848.25;;;14.70;60.45
40850;BME280;26571;41.610;25.380;2023-05-10T08:35:20;98845.50;;;14.64;60.89
40850;BME280;26571;41.610;25.380;2023-05-10T08:37:46;98842.31;;;14.54;58.82
40850;BME280;26571;41.610;25.380;2023-05-10T08:40:11;98843.69;;;14.41;62.61
40850;BME280;26571;41.610;25.380;2023-05-10T08:42:40;98845.72;;;14.39;63.01
40850;BME280;26571;41.610;25.380;2023-05-10T08:45:08;98848.09;;;14.34;61.50
40850;BME280;26571;41.610;25.380;2023-05-10T08:47:36;98855.69;;;14.37;61.05
40850;BME280;26571;41.610;25.380;2023-05-10T08:50:03;98845.72;;;14.39;61.45
40850;BME280;26571;41.610;25.380;2023-05-10T08:52:30;98849.00;;;14.41;60.96
40850;BME280;26571;41.610;25.380;2023-05-10T08:54:58;98828.63;;;14.27;62.20
40850;BME280;26571;41.610;25.380;2023-05-10T08:57:23;98850.19;;;14.39;61.96
40850;BME280;26571;41.610;25.380;2023-05-10T08:59:49;98851.75;;;14.33;61.54
40850;BME280;26571;41.610;25.380;2023-05-10T09:02:14;98857.94;;;14.26;61.62
40850;BME280;26571;41.610;25.380;2023-05-10T09:04:41;98866.88;;;14.25;61.61
40850;BME280;26571;41.610;25.380;2023-05-10T09:07:07;98863.47;;;14.16;62.10
40850;BME280;26571;41.610;25.380;2023-05-10T09:09:33;98865.53;;;14.06;62.21
40850;BME280;26571;41.610;25.380;2023-05-10T09:11:59;98830.63;;;13.64;62.85
40850;BME280;26571;41.610;25.380;2023-05-10T09:14:25;98857.09;;;13.87;63.58
40850;BME280;26571;41.610;25.380;2023-05-10T09:16:50;98867.97;;;13.92;63.37
40850;BME280;26571;41.610;25.380;2023-05-10T09:19:16;98868.13;;;13.91;64.43
40850;BME280;26571;41.610;25.380;2023-05-10T09:21:43;98866.75;;;14.03;63.95
40850;BME280;26571;41.610;25.380;2023-05-10T09:24:08;98862.13;;;14.20;64.30
40850;BME280;26571;41.610;25.380;2023-05-10T09:26:34;98865.63;;;14.35;63.96
40850;BME280;26571;41.610;25.380;2023-05-10T09:29:01;98854.25;;;14.50;64.13
40850;BME280;26571;41.610;25.380;2023-05-10T09:34:19;98839.94;;;14.88;61.33
40850;BME280;26571;41.610;25.380;2023-05-10T09:36:54;98847.19;;;15.16;60.69
40850;BME280;26571;41.610;25.380;2023-05-10T09:39:20;98846.75;;;15.63;60.56
40850;BME280;26571;41.610;25.380;2023-05-10T09:41:46;98823.03;;;16.05;60.03
40850;BME280;26571;41.610;25.380;2023-05-10T09:44:16;98841.56;;;16.47;55.47
40850;BME280;26571;41.610;25.380;2023-05-10T09:46:42;98839.22;;;16.66;53.21
40850;BME280;26571;41.610;25.380;2023-05-10T09:49:08;98830.25;;;17.01;54.40
40850;BME280;26571;41.610;25.380;2023-05-10T09:51:34;98828.94;;;17.32;52.60
40850;BME280;26571;41.610;25.380;2023-05-10T09:54:10;98834.78;;;17.14;47.65
40850;BME280;26571;41.610;25.380;2023-05-10T09:56:36;98827.06;;;16.78;49.65
40850;BME280;26571;41.610;25.380;2023-05-10T09:59:04;98831.84;;;16.61;51.26
40850;BME280;26571;41.610;25.380;2023-05-10T10:01:30;98812.63;;;16.66;51.54
40850;BME280;26571;41.610;25.380;2023-05-10T10:03:56;98824.03;;;16.60;52.38
40850;BME280;26571;41.610;25.380;2023-05-10T10:06:23;98822.31;;;16.45;49.95
40850;BME280;26571;41.610;25.380;2023-05-10T10:08:50;98810.03;;;15.88;51.52
40850;BME280;26571;41.610;25.380;2023-05-10T10:11:16;98813.59;;;15.74;52.10
40850;BME280;26571;41.610;25.380;2023-05-10T10:13:42;98820.13;;;15.57;51.70
40850;BME280;26571;41.610;25.380;2023-05-10T10:16:08;98793.97;;;15.32;54.06
40850;BME280;26571;41.610;25.380;2023-05-10T10:18:35;98798.56;;;15.45;52.87
40850;BME280;26571;41.610;25.380;2023-05-10T10:21:05;98785.84;;;15.40;52.80
40850;BME280;26571;41.610;25.380;2023-05-10T10:23:31;98804.38;;;15.34;52.27
40850;BME280;26571;41.610;25.380;2023-05-10T10:25:56;98768.63;;;15.30;52.48
40850;BME280;26571;41.610;25.380;2023-05-10T10:28:30;98789.81;;;15.66;53.22
40850;BME280;26571;41.610;25.380;2023-05-10T10:31:03;98806.88;;;15.78;54.16
40850;BME280;26571;41.610;25.380;2023-05-10T10:34:00;98799.41;;;15.88;52.81
40850;BME280;26571;41.610;25.380;2023-05-10T10:36:28;98796.13;;;15.65;52.94
40850;BME280;26571;41.610;25.380;2023-05-10T10:38:55;98793.19;;;15.38;52.35
40850;BME280;26571;41.610;25.380;2023-05-10T10:41:34;98790.06;;;15.13;53.12
40850;BME280;26571;41.610;25.380;2023-05-10T10:47:08;98785.25;;;15.38;56.87
40850;BME280;26571;41.610;25.380;2023-05-10T11:02:59;98789.38;;;14.90;57.29
40850;BME280;26571;41.610;25.380;2023-05-10T11:08:00;98776.41;;;14.65;56.46
40850;BME280;26571;41.610;25.380;2023-05-10T11:10:26;98785.41;;;15.00;56.91
40850;BME280;26571;41.610;25.380;2023-05-10T11:13:05;98767.50;;;15.03;55.06
40850;BME280;26571;41.610;25.380;2023-05-10T11:15:39;98787.91;;;15.02;55.90
40850;BME280;26571;41.610;25.380;2023-05-10T11:18:23;98792.06;;;15.11;56.21
40850;BME280;26571;41.610;25.380;2023-05-10T11:23:17;98764.81;;;15.17;52.83
40850;BME280;26571;41.610;25.380;2023-05-10T11:25:45;98772.13;;;15.51;54.20
40850;BME280;26571;41.610;25.380;2023-05-10T11:28:11;98769.41;;;15.88;52.81
40850;BME280;26571;41.610;25.380;2023-05-10T11:30:41;98767.06;;;16.34;51.70
40850;BME280;26571;41.610;25.380;2023-05-10T11:33:08;98764.31;;;16.55;50.28
40850;BME280;26571;41.610;25.380;2023-05-10T11:35:40;98731.34;;;16.43;51.99
40850;BME280;26571;41.610;25.380;2023-05-10T11:38:07;98737.34;;;16.59;49.83
40850;BME280;26571;41.610;25.380;2023-05-10T11:40:33;98776.78;;;16.83;49.21
40850;BME280;26571;41.610;25.380;2023-05-10T11:42:58;98734.97;;;16.36;48.49
40850;BME280;26571;41.610;25.380;2023-05-10T11:45:25;98763.09;;;16.51;50.40
40850;BME280;26571;41.610;25.380;2023-05-10T11:47:51;98764.41;;;16.69;49.99
40850;BME280;26571;41.610;25.380;2023-05-10T11:50:17;98766.75;;;16.85;50.05
40850;BME280;26571;41.610;25.380;2023-05-10T11:52:43;98716.72;;;16.61;49.92
40850;BME280;26571;41.610;25.380;2023-05-10T11:55:08;98762.59;;;17.24;49.54
40850;BME280;26571;41.610;25.380;2023-05-10T11:57:35;98758.88;;;17.18;45.04
40850;BME280;26571;41.610;25.380;2023-05-10T12:00:03;98750.25;;;16.62;47.28
40850;BME280;26571;41.610;25.380;2023-05-10T12:02:29;98744.19;;;16.40;49.88
40850;BME280;26571;41.610;25.380;2023-05-10T12:04:55;98757.69;;;16.38;50.21
40850;BME280;26571;41.610;25.380;2023-05-10T12:07:21;98746.34;;;16.51;49.26
40850;BME280;26571;41.610;25.380;2023-05-10T12:10:25;98741.72;;;16.32;49.60
40850;BME280;26571;41.610;25.380;2023-05-10T12:12:52;98739.00;;;16.25;50.25
40850;BME280;26571;41.610;25.380;2023-05-10T12:15:20;98739.72;;;16.40;51.00
40850;BME280;26571;41.610;25.380;2023-05-10T12:17:46;98711.00;;;16.22;49.81
40850;BME280;26571;41.610;25.380;2023-05-10T12:22:48;98726.19;;;16.35;49.09
40850;BME280;26571;41.610;25.380;2023-05-10T12:25:14;98744.56;;;16.30;49.50
40850;BME280;26571;41.610;25.380;2023-05-10T12:27:40;98737.94;;;16.19;49.79
40850;BME280;26571;41.610;25.380;2023-05-10T12:30:05;98727.81;;;15.73;51.68
40850;BME280;26571;41.610;25.380;2023-05-10T12:32:41;98740.97;;;15.39;52.01
40850;BME280;26571;41.610;25.380;2023-05-10T12:35:07;98734.84;;;15.17;54.19
40850;BME280;26571;41.610;25.380;2023-05-10T12:37:33;98727.91;;;15.01;53.34
40850;BME280;26571;41.610;25.380;2023-05-10T12:40:05;98718.97;;;15.02;53.68
40850;BME280;26571;41.610;25.380;2023-05-10T12:42:31;98725.72;;;15.26;53.28
40850;BME280;26571;41.610;25.380;2023-05-10T12:44:57;98722.69;;;15.50;54.78
40850;BME280;26571;41.610;25.380;2023-05-10T12:47:22;98717.50;;;15.85;52.47
40850;BME280;26571;41.610;25.380;2023-05-10T12:49:48;98709.38;;;16.21;52.40
40850;BME280;26571;41.610;25.380;2023-05-10T12:52:13;98708.25;;;16.44;48.74
40850;BME280;26571;41.610;25.380;2023-05-10T12:54:39;98708.94;;;16.66;49.73
40850;BME280;26571;41.610;25.380;2023-05-10T12:57:04;98701.13;;;16.99;48.86
40850;BME280;26571;41.610;25.380;2023-05-10T12:59:30;98698.72;;;17.24;46.82
40850;BME280;26571;41.610;25.380;2023-05-10T13:01:57;98703.66;;;17.27;47.50
40850;BME280;26571;41.610;25.380;2023-05-10T13:04:22;98705.69;;;17.25;47.58
40850;BME280;26571;41.610;25.380;2023-05-10T13:06:48;98698.69;;;16.97;46.96
40850;BME280;26571;41.610;25.380;2023-05-10T13:09:13;98708.94;;;16.18;49.37
40850;BME280;26571;41.610;25.380;2023-05-10T13:11:38;98697.56;;;15.68;52.17
40850;BME280;26571;41.610;25.380;2023-05-10T13:14:04;98697.78;;;15.66;53.65
40850;BME280;26571;41.610;25.380;2023-05-10T13:16:30;98693.56;;;15.79;54.37
40850;BME280;26571;41.610;25.380;2023-05-10T13:18:56;98694.00;;;15.82;54.05
40850;BME280;26571;41.610;25.380;2023-05-10T13:21:21;98698.97;;;15.92;54.53
40850;BME280;26571;41.610;25.380;2023-05-10T13:23:47;98698.66;;;16.08;54.10
40850;BME280;26571;41.610;25.380;2023-05-10T13:26:12;98686.66;;;16.19;54.12
40850;BME280;26571;41.610;25.380;2023-05-10T13:28:38;98691.25;;;16.32;53.73
40850;BME280;26571;41.610;25.380;2023-05-10T13:31:04;98689.81;;;16.36;52.61
40850;BME280;26571;41.610;25.380;2023-05-10T13:33:30;98683.09;;;16.40;53.48
40850;BME280;26571;41.610;25.380;2023-05-10T13:35:55;98676.34;;;16.37;52.97